ADDS METAR Data INFO
IDs: Format: Raw Decoded Include TAF

Data at: 0716 UTC 24 Jun 2018

KPHN 240715Z AUTO 00000KT 4SM BR OVC090 18/17 A2977 RMK AO2
KPHN 240656Z AUTO 00000KT 4SM BR SCT003 OVC090 18/17 A2978 RMK AO2
KPHN 240655Z AUTO 00000KT 4SM BR SCT003 OVC090 18/17 A2978 RMK AO2
KPHN 240636Z AUTO 00000KT 4SM BR SCT003 SCT065 OVC080 18/17 A2977 RMK AO2
KPHN 240635Z AUTO 00000KT 4SM BR SCT003 SCT065 OVC080 18/17 A2977 RMK AO2
KPHN 240616Z AUTO 00000KT 4SM BR SCT065 OVC080 18/17 A2977 RMK AO2
KPHN 240615Z AUTO 00000KT 4SM BR BKN065 OVC080 18/17 A2977 RMK AO2
KPHN 240556Z AUTO 00000KT 4SM BR SCT065 OVC080 18/16 A2977 RMK AO2
KPHN 240555Z AUTO 00000KT 4SM BR SCT065 OVC080 18/16 A2977 RMK AO2
KPHN 240536Z AUTO 00000KT 5SM BR BKN005 BKN065 OVC080 18/17 A2977 RMK AO2
KPHN 240535Z AUTO 00000KT 5SM BR BKN005 BKN065 OVC080 18/17 A2977 RMK AO2
KPHN 240516Z AUTO 00000KT 5SM BR OVC005 18/17 A2977 RMK AO2
KPHN 240515Z AUTO 00000KT 5SM BR OVC005 18/17 A2977 RMK AO2
KPHN 240456Z AUTO 00000KT 4SM DZ OVC003 18/17 A2978 RMK AO2
KPHN 240455Z AUTO 00000KT 4SM DZ OVC003 18/17 A2978 RMK AO2
KPHN 240436Z AUTO 00000KT 3SM +DZ BKN003 OVC008 18/17 A2978 RMK AO2
KPHN 240435Z AUTO 00000KT 3SM +DZ BKN003 BKN008 OVC025 18/17 A2978 RMK AO2
KPHN 240416Z AUTO 23003KT 4SM +RA SCT003 SCT009 OVC070 18/16 A2977 RMK AO2
KPHN 240415Z AUTO 23003KT 4SM RA SCT003 SCT009 OVC070 18/16 A2977 RMK AO2
KPHN 240356Z AUTO 00000KT 5SM -RA SCT014 BKN080 OVC085 18/16 A2977 RMK AO2
KPHN 240355Z AUTO 00000KT 5SM -RA OVC080 18/16 A2977 RMK AO2
KPHN 240336Z AUTO 04004KT 5SM -RA SCT005 SCT011 OVC080 18/16 A2976 RMK AO2
KPHN 240335Z AUTO 03004KT 5SM -RA SCT005 SCT011 OVC080 18/16 A2976 RMK AO2
KPHN 240316Z AUTO 01004KT 5SM -RA BKN005 BKN011 OVC060 18/16 A2977 RMK AO2
KPHN 240315Z AUTO 36004KT 5SM -RA BKN005 BKN011 OVC060 18/17 A2977 RMK AO2
KPHN 240255Z AUTO 35005KT 4SM +RA SCT005 BKN060 OVC080 18/17 A2977 RMK AO2
KPHN 240236Z AUTO 04004KT 3SM +RA SCT020 BKN065 OVC080 18/17 A2977 RMK AO2
KPHN 240235Z AUTO 03004KT 3SM +RA SCT020 SCT031 OVC065 18/17 A2977 RMK AO2
KPHN 240216Z AUTO 05004KT 1 1/2SM +RA BKN018 BKN022 OVC027 18/17 A2977 RMK AO2
KPHN 240215Z AUTO 04004KT 1 1/2SM +RA OVC018 18/17 A2977 RMK AO2
KPHN 240155Z AUTO 01004KT 1 1/4SM +RA OVC018 18/17 A2976 RMK AO2
KPHN 240136Z AUTO 03006KT 1 1/4SM +RA SCT011 OVC018 19/17 A2976 RMK AO2
KPHN 240135Z AUTO 03006KT 1 1/4SM +RA SCT011 BKN018 OVC024 19/17 A2976 RMK AO2
KPHN 240116Z AUTO 00000KT 2SM +RA BKN012 OVC016 19/17 A2975 RMK AO2
KPHN 240115Z AUTO 00000KT 2SM +RA BKN012 OVC016 19/17 A2975 RMK AO2
KPHN 240055Z AUTO 00000KT 2 1/2SM +RA BKN012 BKN024 OVC029 20/17 A2974 RMK AO2
KPHN 240036Z AUTO 00000KT 7SM RA SCT012 BKN031 OVC037 20/17 A2974 RMK AO2
KPHN 240035Z AUTO 00000KT 7SM RA SCT012 BKN031 OVC046 20/17 A2974 RMK AO2
KPHN 240016Z AUTO 01004KT 10SM -RA SCT034 OVC048 20/17 A2972 RMK AO2
KPHN 240015Z AUTO 02005KT 10SM -RA SCT034 OVC048 21/17 A2972 RMK AO2
KPHN 232355Z AUTO 03004KT 10SM BKN050 21/17 A2972 RMK AO2
KPHN 232336Z AUTO 05004KT 10SM SCT037 SCT050 21/17 A2971 RMK AO2
KPHN 232335Z AUTO 04003KT 10SM SCT037 SCT050 21/17 A2971 RMK AO2
KPHN 232316Z AUTO 04005KT 10SM SCT039 22/17 A2971 RMK AO2
KPHN 232315Z AUTO 04005KT 10SM SCT039 22/17 A2971 RMK AO2
KPHN 232255Z AUTO 04006KT 10SM SCT039 SCT045 SCT090 23/17 A2970 RMK AO2
KPHN 232236Z AUTO 03007KT 10SM SCT044 SCT090 23/17 A2970 RMK AO2
KPHN 232235Z AUTO 03006KT 10SM SCT044 SCT090 23/17 A2970 RMK AO2
KPHN 232216Z AUTO 02005KT 10SM CLR 24/18 A2970 RMK AO2
KPHN 232215Z AUTO 02005KT 10SM CLR 24/18 A2971 RMK AO2
KPHN 232156Z AUTO 02004KT 10SM SCT050 25/18 A2970 RMK AO2
KPHN 232136Z AUTO 08004KT 10SM SCT050 25/18 A2970 RMK AO2
KPHN 232135Z AUTO 08004KT 10SM SCT050 25/18 A2970 RMK AO2
KPHN 232116Z AUTO 04003KT 10SM SCT020 SCT055 24/18 A2970 RMK AO2
KPHN 232115Z AUTO 03003KT 10SM SCT020 SCT055 24/18 A2970 RMK AO2
KPHN 232056Z AUTO 05004KT 10SM SCT020 25/18 A2970 RMK AO2
KPHN 232036Z AUTO 04005KT 10SM SCT048 25/19 A2969 RMK AO2
KPHN 232035Z AUTO 06005KT 10SM SCT048 25/18 A2969 RMK AO2
KPHN 232016Z AUTO 05007KT 10SM SCT023 SCT030 BKN048 25/19 A2969 RMK AO2
KPHN 232015Z AUTO 05007KT 10SM SCT021 SCT030 BKN048 25/19 A2969 RMK AO2
KPHN 231956Z AUTO 36003KT 10SM SCT021 BKN030 OVC043 23/18 A2969 RMK AO2
KPHN 231955Z AUTO 36004KT 10SM SCT021 BKN030 OVC043 23/18 A2969 RMK AO2
KPHN 231936Z AUTO 35003KT 10SM BKN043 BKN048 24/18 A2969 RMK AO2
KPHN 231935Z AUTO 35003KT 10SM SCT035 BKN043 24/18 A2969 RMK AO2
KPHN 231916Z AUTO 05003KT 10SM SCT021 SCT029 BKN037 25/19 A2969 RMK AO2
KPHN 231915Z AUTO 08003KT 10SM SCT021 SCT029 BKN037 25/19 A2969 RMK AO2
KPHN 231856Z AUTO 03005KT 10SM SCT018 SCT024 BKN048 24/19 A2969 RMK AO2
KPHN 231855Z AUTO 02006KT 10SM SCT018 SCT024 BKN048 24/19 A2969 RMK AO2
KPHN 231836Z AUTO 36004KT 10SM SCT016 BKN050 24/19 A2969 RMK AO2
KPHN 231835Z AUTO 03004KT 10SM SCT016 BKN050 24/19 A2969 RMK AO2
KPHN 231816Z AUTO 00000KT 10SM SCT016 BKN050 23/18 A2970 RMK AO2
KPHN 231815Z AUTO 00000KT 10SM SCT016 BKN050 23/18 A2970 RMK AO2
KPHN 231756Z AUTO 32003KT 7SM SCT016 SCT023 BKN029 22/18 A2970 RMK AO2
KPHN 231755Z AUTO 32003KT 7SM SCT016 SCT023 BKN029 22/18 A2970 RMK AO2
KPHN 231736Z AUTO 00000KT 4SM -DZ SCT023 BKN030 OVC037 21/18 A2971 RMK AO2
KPHN 231735Z AUTO 00000KT 4SM -DZ SCT023 BKN030 OVC037 21/18 A2971 RMK AO2
KPHN 231715Z AUTO 00000KT 1 3/4SM +RA BKN013 OVC030 20/18 A2971 RMK AO2
KPHN 231656Z AUTO 00000KT 5SM RA OVC011 21/18 A2971 RMK AO2
KPHN 231655Z AUTO 00000KT 5SM -RA OVC011 21/18 A2971 RMK AO2
KPHN 231636Z AUTO 00000KT 10SM OVC011 21/18 A2971 RMK AO2
KPHN 231635Z AUTO 00000KT 10SM OVC011 21/18 A2971 RMK AO2
KPHN 231615Z AUTO 00000KT 10SM OVC009 21/18 A2971 RMK AO2
KPHN 231556Z AUTO 12004KT 10SM OVC009 20/18 A2971 RMK AO2
KPHN 231555Z AUTO 12003KT 10SM OVC009 20/18 A2971 RMK AO2
KPHN 231536Z AUTO 14003KT 10SM OVC009 20/18 A2971 RMK AO2
KPHN 231535Z AUTO 14004KT 10SM OVC009 20/18 A2971 RMK AO2
KPHN 231515Z AUTO 13004KT 10SM OVC007 20/17 A2971 RMK AO2
KPHN 231456Z AUTO 10003KT 7SM OVC007 19/17 A2971 RMK AO2
KPHN 231455Z AUTO 11003KT 7SM OVC007 19/17 A2971 RMK AO2
KPHN 231436Z AUTO 12003KT 10SM OVC007 19/17 A2971 RMK AO2
KPHN 231435Z AUTO 12004KT 10SM OVC007 19/17 A2971 RMK AO2
KPHN 231415Z AUTO 11004KT 10SM OVC007 19/17 A2971 RMK AO2
KPHN 231356Z AUTO 14003KT 10SM -DZ OVC007 19/17 A2972 RMK AO2
KPHN 231355Z AUTO 13003KT 10SM -DZ OVC007 19/17 A2972 RMK AO2
KPHN 231336Z AUTO 12005KT 10SM -RA OVC007 19/17 A2971 RMK AO2
KPHN 231335Z AUTO 12004KT 10SM -RA OVC007 19/17 A2971 RMK AO2
KPHN 231315Z AUTO 13005KT 10SM -DZ BKN009 OVC013 19/17 A2971 RMK AO2
KPHN 231256Z AUTO 11005KT 10SM SCT009 OVC013 19/17 A2971 RMK AO2
KPHN 231255Z AUTO 11005KT 10SM SCT009 OVC013 19/17 A2971 RMK AO2
KPHN 231236Z AUTO 13004KT 10SM BKN009 OVC013 18/16 A2972 RMK AO2
KPHN 231235Z AUTO 14004KT 10SM BKN009 OVC013 18/16 A2972 RMK AO2
KPHN 231215Z AUTO 13005KT 10SM OVC009 18/16 A2972 RMK AO2
KPHN 231156Z AUTO 13004KT 10SM BKN009 OVC015 18/16 A2971 RMK AO2
KPHN 231155Z AUTO 13005KT 10SM BKN009 OVC015 18/16 A2971 RMK AO2
KPHN 231136Z AUTO 12004KT 10SM OVC009 18/16 A2971 RMK AO2
KPHN 231135Z AUTO 12004KT 10SM OVC009 18/16 A2971 RMK AO2
KPHN 231115Z AUTO 10004KT 10SM OVC011 18/16 A2972 RMK AO2
KPHN 231056Z AUTO 10005KT 10SM OVC013 18/16 A2971 RMK AO2
KPHN 231055Z AUTO 10005KT 10SM OVC013 18/16 A2971 RMK AO2
KPHN 231036Z AUTO 11004KT 10SM OVC015 18/16 A2971 RMK AO2
KPHN 231035Z AUTO 11004KT 10SM OVC015 18/16 A2971 RMK AO2
KPHN 231016Z AUTO 10003KT 10SM SCT010 OVC017 18/16 A2971 RMK AO2
KPHN 231015Z AUTO 10003KT 10SM SCT010 OVC017 18/16 A2971 RMK AO2
KPHN 230956Z AUTO 08003KT 10SM OVC010 18/16 A2971 RMK AO2
KPHN 230955Z AUTO 08003KT 10SM OVC010 18/16 A2971 RMK AO2
KPHN 230936Z AUTO 10003KT 10SM BKN010 OVC020 18/16 A2971 RMK AO2
KPHN 230935Z AUTO 10003KT 10SM BKN010 OVC020 18/16 A2971 RMK AO2
KPHN 230916Z AUTO 11004KT 10SM BKN010 OVC020 18/16 A2971 RMK AO2
KPHN 230915Z AUTO 11004KT 10SM BKN010 OVC020 18/16 A2971 RMK AO2
KPHN 230856Z AUTO 11003KT 10SM SCT010 OVC020 18/16 A2970 RMK AO2
KPHN 230855Z AUTO 10003KT 10SM SCT010 OVC020 18/16 A2970 RMK AO2
KPHN 230836Z AUTO 11005KT 10SM SCT010 OVC020 18/16 A2971 RMK AO2
KPHN 230835Z AUTO 10004KT 10SM SCT010 OVC020 18/16 A2971 RMK AO2
KPHN 230816Z AUTO 12004KT 10SM OVC020 17/16 A2971 RMK AO2
KPHN 230815Z AUTO 11005KT 10SM OVC020 17/16 A2971 RMK AO2
KPHN 230756Z AUTO 11004KT 10SM SCT020 BKN100 17/16 A2971 RMK AO2
KPHN 230755Z AUTO 11004KT 10SM SCT020 BKN100 17/16 A2971 RMK AO2
KPHN 230736Z AUTO 11005KT 10SM BKN100 17/16 A2971 RMK AO2
KPHN 230735Z AUTO 12005KT 10SM BKN100 17/16 A2971 RMK AO2
KPHN 230716Z AUTO 12004KT 10SM OVC110 18/16 A2972 RMK AO2
KPHN 230715Z AUTO 12005KT 10SM OVC110 18/16 A2972 RMK AO2
KPHN 230656Z AUTO 11006KT 10SM SCT025 SCT042 OVC110 18/16 A2973 RMK AO2
KPHN 230655Z AUTO 12006KT 10SM SCT025 SCT042 OVC110 18/16 A2973 RMK AO2
KPHN 230636Z AUTO 11007KT 10SM SCT025 SCT042 BKN120 18/16 A2973 RMK AO2
KPHN 230635Z AUTO 12007KT 10SM SCT025 SCT042 BKN120 18/16 A2973 RMK AO2
KPHN 230616Z AUTO 11005KT 10SM -DZ BKN025 BKN080 BKN120 18/16 A2974 RMK AO2
KPHN 230615Z AUTO 11006KT 10SM -DZ BKN025 BKN080 BKN120 18/16 A2974 RMK AO2
KPHN 230556Z AUTO 11006KT 10SM -DZ OVC025 18/16 A2974 RMK AO2
KPHN 230555Z AUTO 11006KT 10SM -DZ OVC025 18/16 A2974 RMK AO2
KPHN 230536Z AUTO 11005KT 10SM SCT008 BKN025 OVC049 18/16 A2974 RMK AO2
KPHN 230535Z AUTO 11006KT 10SM SCT010 BKN025 OVC049 18/16 A2974 RMK AO2
KPHN 230516Z AUTO 10005KT 10SM -RA BKN010 BKN025 OVC080 18/16 A2974 RMK AO2
KPHN 230515Z AUTO 10005KT 10SM -RA BKN010 BKN025 OVC080 18/16 A2974 RMK AO2
KPHN 230456Z AUTO 11007KT 10SM BKN010 OVC027 18/16 A2974 RMK AO2
KPHN 230455Z AUTO 11008KT 10SM BKN010 OVC025 18/16 A2974 RMK AO2
KPHN 230436Z AUTO 12007KT 10SM BKN010 OVC025 18/16 A2975 RMK AO2
KPHN 230435Z AUTO 11007KT 10SM BKN010 OVC023 18/16 A2975 RMK AO2
KPHN 230416Z AUTO 11007KT 10SM -RA BKN010 BKN023 OVC060 18/16 A2975 RMK AO2
KPHN 230415Z AUTO 12007KT 10SM -RA BKN010 BKN023 OVC060 18/16 A2975 RMK AO2
KPHN 230356Z AUTO 11006KT 10SM -DZ BKN010 OVC075 17/16 A2975 RMK AO2
KPHN 230355Z AUTO 11006KT 10SM -DZ BKN010 OVC075 17/16 A2975 RMK AO2
KPHN 230336Z AUTO 11005KT 10SM -RA OVC010 17/16 A2976 RMK AO2
KPHN 230335Z AUTO 11005KT 10SM -RA OVC010 17/16 A2976 RMK AO2
KPHN 230316Z AUTO 09005KT 10SM -DZ OVC008 17/16 A2976 RMK AO2
KPHN 230315Z AUTO 10006KT 10SM -DZ OVC008 17/16 A2977 RMK AO2
KPHN 230256Z AUTO 10006KT 10SM OVC008 17/15 A2977 RMK AO2
KPHN 230255Z AUTO 10005KT 10SM OVC008 17/15 A2977 RMK AO2
KPHN 230236Z AUTO 10007KT 10SM OVC008 17/15 A2977 RMK AO2
KPHN 230235Z AUTO 10008KT 10SM OVC008 17/15 A2977 RMK AO2
KPHN 230216Z AUTO 10008KT 10SM OVC008 17/15 A2977 RMK AO2
KPHN 230215Z AUTO 10008KT 10SM OVC008 17/15 A2977 RMK AO2
KPHN 230156Z AUTO 09008KT 10SM OVC008 17/15 A2977 RMK AO2
KPHN 230155Z AUTO 10007KT 10SM OVC008 17/15 A2977 RMK AO2
KPHN 230136Z AUTO 07007KT 10SM OVC006 17/15 A2976 RMK AO2
KPHN 230135Z AUTO 07008KT 10SM OVC006 17/15 A2976 RMK AO2
KPHN 230116Z AUTO 08009KT 5SM DZ OVC006 17/15 A2977 RMK AO2
KPHN 230115Z AUTO 08009KT 5SM DZ OVC006 17/15 A2977 RMK AO2
KPHN 230056Z AUTO 07007KT 3SM -RA OVC006 17/15 A2977 RMK AO2
KPHN 230055Z AUTO 08008KT 3SM -RA OVC006 17/15 A2977 RMK AO2
KPHN 230036Z AUTO 08008KT 2 1/2SM DZ OVC006 17/15 A2978 RMK AO2
KPHN 230035Z AUTO 07008KT 2 1/2SM DZ OVC006 17/15 A2978 RMK AO2
KPHN 230016Z AUTO 08008KT 2SM DZ OVC006 17/15 A2978 RMK AO2
KPHN 230015Z AUTO 08008KT 2SM DZ OVC006 17/15 A2978 RMK AO2
KPHN 222356Z AUTO 08009KT 4SM -DZ OVC006 17/15 A2978 RMK AO2
KPHN 222355Z AUTO 08009KT 4SM -DZ OVC006 17/15 A2978 RMK AO2
KPHN 222336Z AUTO 07007KT 2 1/2SM DZ OVC006 17/15 A2979 RMK AO2
KPHN 222335Z AUTO 08008KT 2SM RA OVC006 17/15 A2979 RMK AO2
KPHN 222316Z AUTO 08006KT 2 1/2SM BR BKN008 OVC011 17/15 A2979 RMK AO2
KPHN 222315Z AUTO 07007KT 2 1/2SM BR BKN008 BKN011 OVC017 17/15 A2979 RMK AO2
KPHN 222256Z AUTO 08010KT 3SM BR BKN010 OVC017 17/15 A2980 RMK AO2
KPHN 222255Z AUTO 08010KT 3SM BR SCT010 OVC017 17/15 A2980 RMK AO2
KPHN 222236Z AUTO 08009KT 5SM HZ BKN012 OVC021 17/15 A2980 RMK AO2
KPHN 222235Z AUTO 08008KT 5SM HZ BKN015 OVC021 17/15 A2980 RMK AO2
KPHN 222216Z AUTO 06010KT 5SM -DZ OVC021 17/15 A2980 RMK AO2
KPHN 222215Z AUTO 06010KT 5SM -DZ OVC021 17/15 A2980 RMK AO2
KPHN 222156Z AUTO 07009G15KT 2 1/2SM RA BKN023 OVC029 18/15 A2982 RMK AO2
KPHN 222155Z AUTO 07009G15KT 2 1/2SM +RA BKN023 OVC029 18/15 A2982 RMK AO2
KPHN 222136Z AUTO 09012G21KT 10SM RA BKN030 BKN036 OVC041 20/14 A2981 RMK AO2
KPHN 222135Z AUTO 09014G21KT 10SM RA BKN033 OVC041 20/14 A2981 RMK AO2
KPHN 222116Z AUTO 09011G17KT 10SM BKN035 OVC060 22/13 A2980 RMK AO2
KPHN 222115Z AUTO 09012G17KT 10SM BKN035 OVC060 22/13 A2980 RMK AO2
KPHN 222056Z AUTO 11010G17KT 10SM BKN037 OVC070 22/13 A2981 RMK AO2
KPHN 222055Z AUTO 11010G17KT 10SM BKN037 OVC070 22/13 A2981 RMK AO2
KPHN 222036Z AUTO 11009KT 10SM SCT035 SCT043 OVC070 22/13 A2981 RMK AO2
KPHN 222035Z AUTO 11011KT 10SM SCT035 SCT043 OVC070 22/13 A2981 RMK AO2
KPHN 222016Z AUTO 10013G17KT 10SM SCT035 SCT043 BKN070 23/13 A2981 RMK AO2
KPHN 222015Z AUTO 10013G17KT 10SM SCT035 SCT043 BKN070 23/14 A2981 RMK AO2
KPHN 221956Z AUTO 11011G23KT 10SM BKN035 23/14 A2981 RMK AO2
KPHN 221955Z AUTO 11013G23KT 10SM BKN035 23/14 A2981 RMK AO2
KPHN 221936Z AUTO 12010KT 10SM OVC035 22/14 A2982 RMK AO2
KPHN 221935Z AUTO 12010KT 10SM OVC035 22/14 A2982 RMK AO2